createdAt,value
2023-03-16T00:01:26.490Z,3.00
2023-03-16T00:03:53.294Z,3.00
2023-03-16T00:06:20.170Z,3.00
2023-03-16T00:08:46.960Z,3.10
2023-03-16T00:11:13.793Z,3.00
2023-03-16T00:13:42.882Z,3.00
2023-03-16T00:16:09.793Z,3.00
2023-03-16T00:18:39.342Z,3.00
2023-03-16T00:21:06.944Z,2.90
2023-03-16T00:23:35.958Z,3.00
2023-03-16T00:26:05.873Z,3.10
2023-03-16T00:28:35.269Z,3.10
2023-03-16T00:31:03.328Z,3.10
2023-03-16T00:33:30.344Z,3.10
2023-03-16T00:36:03.062Z,3.00
2023-03-16T00:38:32.896Z,3.10
2023-03-16T00:40:59.701Z,3.00
2023-03-16T00:43:27.351Z,3.00
2023-03-16T00:46:06.805Z,3.00
2023-03-16T00:48:35.076Z,3.00
2023-03-16T00:51:07.093Z,3.00
2023-03-16T00:53:34.885Z,3.00
2023-03-16T00:56:04.419Z,3.10
2023-03-16T00:58:36.063Z,3.10
2023-03-16T01:01:09.054Z,3.10
2023-03-16T01:03:36.623Z,3.10
2023-03-16T01:06:10.203Z,3.10
2023-03-16T01:08:39.055Z,3.10
2023-03-16T01:11:11.239Z,3.10
2023-03-16T01:13:39.357Z,3.10
2023-03-16T01:16:07.091Z,3.10
2023-03-16T01:18:34.601Z,3.10
2023-03-16T01:21:03.739Z,3.10
2023-03-16T01:23:31.479Z,3.10
2023-03-16T01:25:59.441Z,3.00
2023-03-16T01:28:29.266Z,2.90
2023-03-16T01:31:04.531Z,2.80
2023-03-16T01:33:31.680Z,2.80
2023-03-16T01:35:59.932Z,2.70
2023-03-16T01:38:27.353Z,2.70
2023-03-16T01:40:55.934Z,2.70
2023-03-16T01:43:25.760Z,2.70
2023-03-16T01:45:58.891Z,2.60
2023-03-16T01:48:27.456Z,2.60
2023-03-16T01:50:55.406Z,2.60
2023-03-16T01:53:24.861Z,2.60
2023-03-16T01:55:54.012Z,2.60
2023-03-16T01:58:21.596Z,2.70
2023-03-16T02:00:48.542Z,2.70
2023-03-16T02:03:18.486Z,2.80
2023-03-16T02:05:53.247Z,2.80
2023-03-16T02:08:22.886Z,2.80
2023-03-16T02:10:49.817Z,2.80
2023-03-16T02:13:16.862Z,2.80
2023-03-16T02:15:43.881Z,2.90
2023-03-16T02:18:11.141Z,2.80
2023-03-16T02:21:19.419Z,2.80
2023-03-16T02:23:48.666Z,2.80
2023-03-16T02:26:35.090Z,2.80
2023-03-16T02:29:19.065Z,2.90
2023-03-16T02:31:46.971Z,2.80
2023-03-16T02:34:17.097Z,2.80
2023-03-16T02:36:46.813Z,2.80
2023-03-16T02:39:13.761Z,2.80
2023-03-16T02:41:41.824Z,2.80
2023-03-16T02:44:24.290Z,2.80
2023-03-16T02:46:54.910Z,2.70
2023-03-16T02:49:34.101Z,2.80
2023-03-16T02:52:00.882Z,2.70
2023-03-16T02:54:27.693Z,2.70
2023-03-16T02:56:54.626Z,2.70
2023-03-16T02:59:21.543Z,2.70
2023-03-16T03:01:48.362Z,2.70
2023-03-16T03:04:15.437Z,2.70
2023-03-16T03:06:42.239Z,2.80
2023-03-16T03:09:11.725Z,2.80
2023-03-16T03:11:39.011Z,2.80
2023-03-16T03:14:06.096Z,2.90
2023-03-16T03:16:32.936Z,2.90
2023-03-16T03:18:59.862Z,2.90
2023-03-16T03:21:26.691Z,2.90
2023-03-16T03:23:53.780Z,2.90
2023-03-16T03:26:21.435Z,3.00
2023-03-16T03:28:48.248Z,3.00
2023-03-16T03:31:21.513Z,3.10
2023-03-16T03:33:48.864Z,3.00
2023-03-16T03:36:15.713Z,3.00
2023-03-16T03:38:42.520Z,3.00
2023-03-16T03:41:09.523Z,3.00
2023-03-16T03:43:36.357Z,3.00
2023-03-16T03:46:04.430Z,3.00
2023-03-16T03:48:31.595Z,3.00
2023-03-16T03:50:58.447Z,3.00
2023-03-16T03:53:25.303Z,3.10
2023-03-16T03:55:52.125Z,3.00
2023-03-16T03:58:18.993Z,3.10
2023-03-16T04:00:45.952Z,3.00
2023-03-16T04:03:12.777Z,3.00
2023-03-16T04:05:39.717Z,3.00
2023-03-16T04:08:06.738Z,3.00
2023-03-16T04:10:33.637Z,3.00
2023-03-16T04:13:01.045Z,3.00
2023-03-16T04:15:27.867Z,3.10
2023-03-16T04:17:54.633Z,3.10
2023-03-16T04:20:21.942Z,3.10
2023-03-16T04:22:49.182Z,3.10
2023-03-16T04:25:17.706Z,3.10
2023-03-16T04:27:46.827Z,3.10
2023-03-16T04:30:14.765Z,3.10
2023-03-16T04:32:41.822Z,3.10
2023-03-16T04:35:09.752Z,3.20
2023-03-16T04:37:36.919Z,3.30
2023-03-16T04:40:16.035Z,3.30
2023-03-16T04:42:47.145Z,3.30
2023-03-16T04:45:15.200Z,3.30
2023-03-16T04:47:42.051Z,3.30
2023-03-16T04:50:10.466Z,3.30
2023-03-16T04:52:37.398Z,3.30
2023-03-16T04:55:04.777Z,3.30
2023-03-16T04:57:32.321Z,3.40
2023-03-16T04:59:59.156Z,3.30
2023-03-16T05:02:25.922Z,3.30
2023-03-16T05:04:52.783Z,3.40
2023-03-16T05:07:19.653Z,3.40
2023-03-16T05:09:46.441Z,3.40
2023-03-16T05:12:13.185Z,3.30
2023-03-16T05:14:40.667Z,3.30
2023-03-16T05:17:13.312Z,3.30
2023-03-16T05:19:40.400Z,3.30
2023-03-16T05:22:07.298Z,3.30
2023-03-16T05:24:34.115Z,3.40
2023-03-16T05:27:04.375Z,3.40
2023-03-16T05:29:31.243Z,3.40
2023-03-16T05:31:59.347Z,3.40
2023-03-16T05:34:27.040Z,3.40
2023-03-16T05:36:53.834Z,3.40
2023-03-16T05:39:20.768Z,3.40
2023-03-16T05:41:47.534Z,3.30
2023-03-16T05:44:14.319Z,3.40
2023-03-16T05:46:41.086Z,3.40
2023-03-16T05:49:07.964Z,3.40
2023-03-16T05:51:34.716Z,3.40
2023-03-16T05:54:01.501Z,3.40
2023-03-16T05:56:29.254Z,3.50
2023-03-16T05:58:56.828Z,3.50
2023-03-16T06:01:24.118Z,3.50
2023-03-16T06:03:54.336Z,3.50
2023-03-16T06:06:22.590Z,3.40
2023-03-16T06:08:49.650Z,3.40
2023-03-16T06:11:17.689Z,3.40
2023-03-16T06:13:44.465Z,3.40
2023-03-16T06:16:13.787Z,3.40
2023-03-16T06:18:41.344Z,3.50
2023-03-16T06:21:08.436Z,3.50
2023-03-16T06:23:35.500Z,3.50
2023-03-16T06:26:02.338Z,3.60
2023-03-16T06:28:30.125Z,3.60
2023-03-16T06:30:58.240Z,3.60
2023-03-16T06:33:25.642Z,3.60
2023-03-16T06:35:52.832Z,3.70
2023-03-16T06:38:19.974Z,3.70
2023-03-16T06:40:51.521Z,3.70
2023-03-16T06:43:18.322Z,3.70
2023-03-16T06:45:45.285Z,3.80
2023-03-16T06:48:12.463Z,3.90
2023-03-16T06:50:39.215Z,3.90
2023-03-16T06:53:06.327Z,3.90
2023-03-16T06:55:33.125Z,4.00
2023-03-16T06:57:59.999Z,4.00
2023-03-16T07:00:27.096Z,4.00
2023-03-16T07:02:54.008Z,4.10
2023-03-16T07:05:20.783Z,4.20
2023-03-16T07:07:47.527Z,4.20
2023-03-16T07:10:17.381Z,4.20
2023-03-16T07:12:44.628Z,4.30
2023-03-16T07:15:12.538Z,4.30
2023-03-16T07:17:40.136Z,4.40
2023-03-16T07:20:10.659Z,4.40
2023-03-16T07:22:41.656Z,4.50
2023-03-16T07:25:09.261Z,4.50
2023-03-16T07:27:36.055Z,4.60
2023-03-16T07:30:05.123Z,4.60
2023-03-16T07:32:32.552Z,4.70
2023-03-16T07:34:59.851Z,4.80
2023-03-16T07:37:27.274Z,4.80
2023-03-16T07:39:54.049Z,4.80
2023-03-16T07:42:22.697Z,5.00
2023-03-16T07:44:51.760Z,5.00
2023-03-16T07:47:19.186Z,5.10
2023-03-16T07:49:45.969Z,5.10
2023-03-16T07:52:15.810Z,5.20
2023-03-16T07:54:43.277Z,5.20
2023-03-16T07:57:12.013Z,5.30
2023-03-16T07:59:38.818Z,5.30
2023-03-16T08:02:05.748Z,5.40
2023-03-16T08:04:32.603Z,5.30
2023-03-16T08:07:01.102Z,5.30
2023-03-16T08:09:28.064Z,5.40
2023-03-16T08:11:54.814Z,5.60
2023-03-16T08:14:21.662Z,5.70
2023-03-16T08:16:48.483Z,5.60
2023-03-16T08:19:15.405Z,5.60
2023-03-16T08:21:57.651Z,5.60
2023-03-16T08:24:29.521Z,5.70
2023-03-16T08:26:57.873Z,5.60
2023-03-16T08:29:27.817Z,5.90
2023-03-16T08:31:56.467Z,6.00
2023-03-16T08:34:24.771Z,6.00
2023-03-16T08:36:51.727Z,5.80
2023-03-16T08:39:18.529Z,6.10
2023-03-16T08:41:47.069Z,6.20
2023-03-16T08:44:13.994Z,6.40
2023-03-16T08:46:40.833Z,6.30
2023-03-16T08:49:08.388Z,6.50
2023-03-16T08:51:38.212Z,6.40
2023-03-16T08:54:05.085Z,6.40
2023-03-16T08:56:32.572Z,6.30
2023-03-16T08:58:59.799Z,6.50
2023-03-16T09:01:27.588Z,6.40
2023-03-16T09:03:55.080Z,6.60
2023-03-16T09:06:22.414Z,6.50
2023-03-16T09:08:49.246Z,6.60
2023-03-16T09:11:18.847Z,6.60
2023-03-16T09:13:46.158Z,6.70
2023-03-16T09:16:15.268Z,6.80
2023-03-16T09:18:42.950Z,6.90
2023-03-16T09:21:13.193Z,7.20
2023-03-16T09:23:42.922Z,7.10
2023-03-16T09:26:10.367Z,7.40
2023-03-16T09:28:38.866Z,7.80
2023-03-16T09:31:07.274Z,7.80
2023-03-16T09:33:35.411Z,7.90
2023-03-16T09:36:03.148Z,8.00
2023-03-16T09:38:30.781Z,7.90
2023-03-16T09:41:07.091Z,7.80
2023-03-16T09:43:44.655Z,7.90
2023-03-16T09:46:35.005Z,7.80
2023-03-16T09:49:03.923Z,7.70
2023-03-16T09:51:44.368Z,7.80
2023-03-16T09:54:39.179Z,7.90
2023-03-16T09:57:15.412Z,8.20
2023-03-16T09:59:42.347Z,7.90
2023-03-16T10:02:35.824Z,7.90
2023-03-16T10:05:10.513Z,7.90
2023-03-16T10:07:53.676Z,7.70
2023-03-16T10:10:26.189Z,7.70
2023-03-16T10:12:54.661Z,7.80
2023-03-16T10:15:27.296Z,7.90
2023-03-16T10:18:03.556Z,8.00
2023-03-16T10:20:34.487Z,8.20
2023-03-16T10:23:15.607Z,8.00
2023-03-16T10:25:48.477Z,8.00
2023-03-16T10:28:27.510Z,8.00
2023-03-16T10:30:57.756Z,8.20
2023-03-16T10:33:33.772Z,8.10
2023-03-16T10:36:25.965Z,8.20
2023-03-16T10:39:11.944Z,8.10
2023-03-16T10:41:43.131Z,8.00
2023-03-16T10:44:22.497Z,8.00
2023-03-16T10:46:58.171Z,8.20
2023-03-16T10:49:27.549Z,8.40
2023-03-16T10:51:57.986Z,8.50
2023-03-16T10:54:30.655Z,8.70
2023-03-16T10:56:58.900Z,8.90
2023-03-16T10:59:50.225Z,8.90
2023-03-16T11:02:20.919Z,9.30
2023-03-16T11:04:48.144Z,9.60
2023-03-16T11:07:24.393Z,9.60
2023-03-16T11:09:52.607Z,9.80
2023-03-16T11:12:31.854Z,10.10
2023-03-16T11:15:23.681Z,10.10
2023-03-16T11:17:55.780Z,10.10
2023-03-16T11:20:26.683Z,10.40
2023-03-16T11:22:53.543Z,10.20
2023-03-16T11:25:29.504Z,10.60
2023-03-16T11:28:15.626Z,10.60
2023-03-16T11:30:59.207Z,10.90
2023-03-16T11:33:27.174Z,11.00
2023-03-16T11:36:22.016Z,11.40
2023-03-16T11:39:09.610Z,11.80
2023-03-16T11:42:01.267Z,11.90
2023-03-16T11:44:42.172Z,11.80
2023-03-16T11:47:29.356Z,12.00
2023-03-16T11:50:15.673Z,11.90
2023-03-16T11:52:54.428Z,11.60
2023-03-16T11:55:27.294Z,11.10
2023-03-16T11:58:03.489Z,11.20
2023-03-16T12:00:44.995Z,11.70
2023-03-16T12:03:23.050Z,12.10
2023-03-16T12:06:16.995Z,12.00
2023-03-16T12:08:58.852Z,12.10
2023-03-16T12:11:37.602Z,12.20
2023-03-16T12:14:26.705Z,12.40
2023-03-16T12:17:02.952Z,12.40
2023-03-16T12:19:54.034Z,12.30
2023-03-16T12:22:22.787Z,11.90
2023-03-16T12:24:50.444Z,12.20
2023-03-16T12:27:30.248Z,12.70
2023-03-16T12:29:58.478Z,12.70
2023-03-16T12:32:45.310Z,12.50
2023-03-16T12:35:28.367Z,12.80
2023-03-16T12:38:07.787Z,13.10
2023-03-16T12:41:00.526Z,13.00
2023-03-16T12:43:27.291Z,13.20
2023-03-16T12:46:07.912Z,12.60
2023-03-16T12:48:49.058Z,12.50
2023-03-16T12:51:15.910Z,12.60
2023-03-16T12:53:43.381Z,12.50
2023-03-16T12:56:13.209Z,12.70
2023-03-16T12:58:49.574Z,12.70
2023-03-16T13:01:28.372Z,12.60
2023-03-16T13:04:09.168Z,12.90
2023-03-16T13:06:37.345Z,12.70
2023-03-16T13:09:07.606Z,12.60
2023-03-16T13:11:50.249Z,12.50
2023-03-16T13:14:35.266Z,13.00
2023-03-16T13:17:27.975Z,12.80
2023-03-16T13:20:00.975Z,12.80
2023-03-16T13:22:29.265Z,12.90
2023-03-16T13:25:22.189Z,12.80
2023-03-16T13:27:53.288Z,12.40
2023-03-16T13:30:24.747Z,12.50
2023-03-16T13:33:14.678Z,12.50
2023-03-16T13:35:41.739Z,12.30
2023-03-16T13:38:16.360Z,12.50
2023-03-16T13:40:48.146Z,13.00
2023-03-16T13:43:23.341Z,13.60
2023-03-16T13:45:50.218Z,14.00
2023-03-16T13:48:20.695Z,13.30
2023-03-16T13:50:58.060Z,13.40
2023-03-16T13:53:30.330Z,13.50
2023-03-16T13:56:00.257Z,13.80
2023-03-16T13:58:33.673Z,14.00
2023-03-16T14:01:05.045Z,14.30
2023-03-16T14:03:36.142Z,14.40
2023-03-16T14:06:07.279Z,14.40
2023-03-16T14:08:34.772Z,14.20
2023-03-16T14:11:02.669Z,14.10
2023-03-16T14:13:29.845Z,14.80
2023-03-16T14:16:02.933Z,15.20
2023-03-16T14:18:41.824Z,15.30
2023-03-16T14:21:24.749Z,15.40
2023-03-16T14:24:00.160Z,14.50
2023-03-16T14:26:27.506Z,13.70
2023-03-16T14:29:11.958Z,13.90
2023-03-16T14:31:41.089Z,13.60
2023-03-16T14:34:29.793Z,13.60
2023-03-16T14:37:14.834Z,13.60
2023-03-16T14:39:42.433Z,13.60
2023-03-16T14:42:27.708Z,14.00
2023-03-16T14:44:56.299Z,14.10
2023-03-16T14:47:28.221Z,13.80
2023-03-16T14:49:57.465Z,14.40
2023-03-16T14:52:32.831Z,14.70
2023-03-16T14:55:03.551Z,14.60
2023-03-16T14:57:30.700Z,14.90
2023-03-16T14:59:57.437Z,14.60
2023-03-16T15:02:29.706Z,14.50
2023-03-16T15:04:57.753Z,14.40
2023-03-16T15:07:31.049Z,14.70
2023-03-16T15:10:29.246Z,15.00
2023-03-16T15:13:04.427Z,14.80
2023-03-16T15:15:32.664Z,14.70
2023-03-16T15:18:00.220Z,15.10
2023-03-16T15:20:42.555Z,15.30
2023-03-16T15:23:15.857Z,15.20
2023-03-16T15:25:47.710Z,15.20
2023-03-16T15:28:19.432Z,15.40
2023-03-16T15:30:48.518Z,15.40
2023-03-16T15:33:15.941Z,14.80
2023-03-16T15:35:44.150Z,15.00
2023-03-16T15:38:24.287Z,14.80
2023-03-16T15:40:52.095Z,14.30
2023-03-16T15:43:21.071Z,14.30
2023-03-16T15:45:48.250Z,14.40
2023-03-16T15:48:16.940Z,14.40
2023-03-16T15:50:52.416Z,14.60
2023-03-16T15:53:30.682Z,14.90
2023-03-16T15:56:04.489Z,14.30
2023-03-16T15:58:34.214Z,14.00
2023-03-16T16:01:02.825Z,14.10
2023-03-16T16:03:30.058Z,13.80
2023-03-16T16:05:57.158Z,13.70
2023-03-16T16:08:24.118Z,13.60
2023-03-16T16:10:53.365Z,13.30
2023-03-16T16:13:26.705Z,13.60
2023-03-16T16:15:58.080Z,13.40
2023-03-16T16:18:36.681Z,12.80
2023-03-16T16:21:05.844Z,12.60
2023-03-16T16:23:33.094Z,12.80
2023-03-16T16:26:08.135Z,12.40
2023-03-16T16:28:35.304Z,12.30
2023-03-16T16:31:02.708Z,12.30
2023-03-16T16:33:36.168Z,12.10
2023-03-16T16:36:07.106Z,12.00
2023-03-16T16:38:34.878Z,12.00
2023-03-16T16:41:06.838Z,12.00
2023-03-16T16:43:41.226Z,11.80
2023-03-16T16:46:15.619Z,11.60
2023-03-16T16:48:48.247Z,11.60
2023-03-16T16:51:19.358Z,11.40
2023-03-16T16:53:50.364Z,11.50
2023-03-16T16:56:28.707Z,11.40
2023-03-16T16:58:57.760Z,11.20
2023-03-16T17:01:32.986Z,11.20
2023-03-16T17:04:00.128Z,11.20
2023-03-16T17:06:27.927Z,11.10
2023-03-16T17:08:55.464Z,11.00
2023-03-16T17:11:29.172Z,10.90
2023-03-16T17:14:01.776Z,10.90
2023-03-16T17:16:32.184Z,10.80
2023-03-16T17:18:59.236Z,10.80
2023-03-16T17:21:29.900Z,10.70
2023-03-16T17:23:57.345Z,10.60
2023-03-16T17:26:37.812Z,10.60
2023-03-16T17:29:31.670Z,10.50
2023-03-16T17:32:03.828Z,10.60
2023-03-16T17:34:33.172Z,10.40
2023-03-16T17:37:00.057Z,10.30
2023-03-16T17:39:30.419Z,10.30
2023-03-16T17:42:18.069Z,10.30
2023-03-16T17:44:47.495Z,10.20
2023-03-16T17:47:19.126Z,10.20
2023-03-16T17:49:48.813Z,10.20
2023-03-16T17:52:23.747Z,10.10
2023-03-16T17:54:53.806Z,10.20
2023-03-16T17:57:31.072Z,10.10
2023-03-16T18:00:00.032Z,10.00
2023-03-16T18:02:54.101Z,10.00
2023-03-16T18:05:27.219Z,9.90
2023-03-16T18:07:56.091Z,9.90
2023-03-16T18:10:27.357Z,9.80
2023-03-16T18:13:05.330Z,9.80
2023-03-16T18:15:36.463Z,9.80
2023-03-16T18:18:07.216Z,9.70
2023-03-16T18:20:36.725Z,9.60
2023-03-16T18:23:25.059Z,9.60
2023-03-16T18:25:54.761Z,9.60
2023-03-16T18:28:23.216Z,9.60
2023-03-16T18:30:52.845Z,9.60
2023-03-16T18:33:28.748Z,9.60
2023-03-16T18:36:01.730Z,9.60
2023-03-16T18:38:30.034Z,9.60
2023-03-16T18:40:59.772Z,9.60
2023-03-16T18:43:27.392Z,9.50
2023-03-16T18:45:55.068Z,9.40
2023-03-16T18:48:31.017Z,9.50
2023-03-16T18:50:58.476Z,9.50
2023-03-16T18:53:27.879Z,9.40
2023-03-16T18:55:57.289Z,9.40
2023-03-16T18:58:25.484Z,9.20
2023-03-16T19:00:58.063Z,9.30
2023-03-16T19:03:31.940Z,9.20
2023-03-16T19:06:00.729Z,9.30
2023-03-16T19:08:28.915Z,9.30
2023-03-16T19:10:59.170Z,9.20
2023-03-16T19:13:26.918Z,9.10
2023-03-16T19:15:58.392Z,9.20
2023-03-16T19:18:26.613Z,9.30
2023-03-16T19:20:55.878Z,9.20
2023-03-16T19:23:32.731Z,9.20
2023-03-16T19:26:00.467Z,9.20
2023-03-16T19:28:34.234Z,9.10
2023-03-16T19:31:03.433Z,9.10
2023-03-16T19:33:30.531Z,9.20
2023-03-16T19:35:58.343Z,9.10
2023-03-16T19:38:26.378Z,9.00
2023-03-16T19:41:00.749Z,9.00
2023-03-16T19:43:28.607Z,9.10
2023-03-16T19:45:57.092Z,9.10
2023-03-16T19:48:45.580Z,9.10
2023-03-16T19:51:17.491Z,9.10
2023-03-16T19:53:44.867Z,9.10
2023-03-16T19:56:18.499Z,9.00
2023-03-16T19:58:52.548Z,9.00
2023-03-16T20:01:23.680Z,9.10
2023-03-16T20:03:53.397Z,9.00
2023-03-16T20:06:22.678Z,9.10
2023-03-16T20:08:51.306Z,9.10
2023-03-16T20:11:27.864Z,9.10
2023-03-16T20:14:03.291Z,9.10
2023-03-16T20:16:33.453Z,9.10
2023-03-16T20:19:04.782Z,9.10
2023-03-16T20:21:32.812Z,9.10
2023-03-16T20:24:10.579Z,9.10
2023-03-16T20:26:40.922Z,9.00
2023-03-16T20:29:24.164Z,9.00
2023-03-16T20:31:53.584Z,9.00
2023-03-16T20:34:31.372Z,9.00
2023-03-16T20:36:59.441Z,9.00
2023-03-16T20:39:27.948Z,9.00
2023-03-16T20:41:55.165Z,9.00
2023-03-16T20:44:25.823Z,9.00
2023-03-16T20:46:52.856Z,8.90
2023-03-16T20:49:25.473Z,8.80
2023-03-16T20:51:52.746Z,8.90
2023-03-16T20:54:19.916Z,8.90
2023-03-16T20:56:52.666Z,9.00
2023-03-16T20:59:24.958Z,8.90
2023-03-16T21:01:54.737Z,8.90
2023-03-16T21:04:31.289Z,9.00
2023-03-16T21:06:58.321Z,9.00
2023-03-16T21:09:26.358Z,9.10
2023-03-16T21:11:53.434Z,9.10
2023-03-16T21:14:24.773Z,9.10
2023-03-16T21:16:54.009Z,9.10
2023-03-16T21:19:23.179Z,9.20
2023-03-16T21:21:50.811Z,9.20
2023-03-16T21:24:18.036Z,9.30
2023-03-16T21:26:47.571Z,9.30
2023-03-16T21:29:18.632Z,9.20
2023-03-16T21:31:45.941Z,9.20
2023-03-16T21:34:30.069Z,9.20
2023-03-16T21:36:59.858Z,9.20
2023-03-16T21:39:31.874Z,9.10
2023-03-16T21:41:58.806Z,9.10
2023-03-16T21:44:26.141Z,9.10
2023-03-16T21:46:53.120Z,9.10
2023-03-16T21:49:19.989Z,9.10
2023-03-16T21:51:48.688Z,9.10
2023-03-16T21:54:16.578Z,9.10
2023-03-16T21:56:44.006Z,9.10
2023-03-16T21:59:11.284Z,9.10
2023-03-16T22:01:47.721Z,9.00
2023-03-16T22:04:25.440Z,9.10
2023-03-16T22:06:52.532Z,9.00
2023-03-16T22:09:22.531Z,8.90
2023-03-16T22:11:49.838Z,8.90
2023-03-16T22:14:16.733Z,8.90
2023-03-16T22:16:43.890Z,8.90
2023-03-16T22:19:14.703Z,8.90
2023-03-16T22:21:43.712Z,8.80
2023-03-16T22:24:26.416Z,8.90
2023-03-16T22:26:53.774Z,8.90
2023-03-16T22:29:26.622Z,8.90
2023-03-16T22:32:07.518Z,8.90
2023-03-16T22:34:42.221Z,8.90
2023-03-16T22:37:12.476Z,8.90
2023-03-16T22:39:40.498Z,8.70
2023-03-16T22:42:24.218Z,8.80
2023-03-16T22:44:51.108Z,8.70
2023-03-16T22:47:23.213Z,8.70
2023-03-16T22:49:49.976Z,8.70
2023-03-16T22:52:17.266Z,8.70
2023-03-16T22:54:46.179Z,8.60
2023-03-16T22:57:15.958Z,8.60
2023-03-16T22:59:44.404Z,8.60
2023-03-16T23:02:15.135Z,8.70
2023-03-16T23:04:42.222Z,8.60
2023-03-16T23:07:13.842Z,8.60
2023-03-16T23:09:41.331Z,8.60
2023-03-16T23:12:18.068Z,8.70
2023-03-16T23:14:45.282Z,8.70
2023-03-16T23:17:20.951Z,8.60
2023-03-16T23:19:48.466Z,8.60
2023-03-16T23:22:15.684Z,8.50
2023-03-16T23:36:12.012Z,8.50
2023-03-16T23:38:38.920Z,8.50
2023-03-16T23:41:06.540Z,8.50
2023-03-16T23:43:33.527Z,8.50
2023-03-16T23:46:00.603Z,8.50
2023-03-16T23:48:28.191Z,8.50
2023-03-16T23:50:57.059Z,8.50
2023-03-16T23:53:25.745Z,8.50
2023-03-16T23:55:52.832Z,8.50
2023-03-16T23:58:19.947Z,8.50
